Terminal Aerodrome Forecast
Issued by NWS Omaha/Valley, NE

Home | Current Version | Previous Version | Text Only | Print | Product List | Glossary Off
Versions: 1 2 3 4 5 6 7 8 9 10 11 12 13 14 15 16 17 18

000
FTUS43 KOAX 142320
TAFOFK
TAF
KOFK 142320Z 1500/1524 34009KT P6SM BKN040
     FM150130 32005KT P6SM BKN070
     FM150400 VRB04KT P6SM SCT250
     FM151600 17012KT P6SM SCT100
     FM151800 19018G25KT P6SM BKN150=

USA.gov is the U.S. government's official web portal to all federal, state and local government web resources and services.